Time;durP1;ratioP1;P1;durP2;ratioP2;P2;SDS_P1;SDS_P2;PMS_P1;PMS_P2;Temp;Humidity;BMP_temperature;BMP_pressure;BME280_temperature;BME280_humidity;BME280_pressure;Samples;Min_cycle;Max_cycle;Signal;HPM_P1;HPM_P2
2021/06/10 00:01:08;;;;;;;62.40;45.17;;;;;;;;;;5221463;27;20110;-87
2021/06/10 00:03:39;;;;;;;59.20;42.47;;;;;;;;;;5183917;27;20030;-88
2021/06/10 00:06:10;;;;;;;65.50;45.55;;;;;;;;;;5176599;27;20026;-87
2021/06/10 00:08:39;;;;;;;60.42;47.97;;;;;;;;;;5202542;27;20030;-88
2021/06/10 00:11:10;;;;;;;66.95;52.10;;;;;;;;;;5195542;27;20438;-86
2021/06/10 00:13:41;;;;;;;70.05;57.03;;;;;;;;;;5182632;27;20507;-89
2021/06/10 00:16:10;;;;;;;63.72;56.05;;;;;;;;;;5178779;27;20030;-86
2021/06/10 00:18:40;;;;;;;65.18;54.75;;;;;;;;;;5199946;27;20027;-87
2021/06/10 00:21:13;;;;;;;57.53;44.80;;;;;;;;;;5178210;27;20038;-87
2021/06/10 00:23:45;;;;;;;60.17;53.75;;;;;;;;;;5180957;27;20956;-88
2021/06/10 00:26:38;;;;;;;64.43;53.80;;;;;;;;;;5199356;27;20045;-88
2021/06/10 00:29:09;;;;;;;59.03;52.92;;;;;;;;;;5183100;27;20022;-87
2021/06/10 00:31:40;;;;;;;57.97;52.10;;;;;;;;;;5200213;27;20041;-88
2021/06/10 00:34:11;;;;;;;62.13;54.28;;;;;;;;;;5177073;27;20147;-88
2021/06/10 00:36:40;;;;;;;60.72;49.13;;;;;;;;;;5178444;27;20030;-87
2021/06/10 00:39:09;;;;;;;54.78;46.40;;;;;;;;;;5180445;27;20030;-88
2021/06/10 00:41:43;;;;;;;58.55;45.97;;;;;;;;;;5180253;27;20026;-88
2021/06/10 00:44:20;;;;;;;65.10;55.08;;;;;;;;;;5179551;27;20494;-87
2021/06/10 00:46:48;;;;;;;78.35;58.92;;;;;;;;;;5199625;27;20026;-88
2021/06/10 00:49:17;;;;;;;74.60;66.43;;;;;;;;;;5203195;27;20463;-87
2021/06/10 00:51:52;;;;;;;75.47;62.92;;;;;;;;;;5179820;27;20026;-87
2021/06/10 00:54:28;;;;;;;69.40;61.78;;;;;;;;;;5175243;27;20436;-87
2021/06/10 00:56:57;;;;;;;65.55;57.65;;;;;;;;;;5178840;27;20376;-87
2021/06/10 00:59:29;;;;;;;66.37;56.05;;;;;;;;;;5196956;27;20019;-87
2021/06/10 01:02:00;;;;;;;46.50;41.53;;;;;;;;;;5194965;27;20062;-86
2021/06/10 01:04:35;;;;;;;44.40;40.10;;;;;;;;;;5176396;27;20037;-87
2021/06/10 01:07:08;;;;;;;45.40;40.42;;;;;;;;;;5179165;27;20041;-87
2021/06/10 01:10:04;;;;;;;53.17;46.17;;;;;;;;;;5198478;27;20034;-86
2021/06/10 01:12:47;;;;;;;50.00;42.78;;;;;;;;;;5193137;27;20024;-86
2021/06/10 01:15:24;;;;;;;59.20;42.53;;;;;;;;;;5202168;27;20822;-87
2021/06/10 01:18:00;;;;;;;63.72;45.10;;;;;;;;;;5184756;27;20404;-88
2021/06/10 01:20:32;;;;;;;63.00;45.60;;;;;;;;;;5196201;27;20034;-87
2021/06/10 01:23:06;;;;;;;59.85;43.78;;;;;;;;;;5195544;27;20030;-87
2021/06/10 01:25:37;;;;;;;56.22;40.72;;;;;;;;;;5178798;27;20405;-87
2021/06/10 01:28:13;;;;;;;69.85;51.95;;;;;;;;;;5196977;27;20086;-87
2021/06/10 01:31:02;;;;;;;61.17;48.20;;;;;;;;;;5216294;27;20033;-86
2021/06/10 01:33:36;;;;;;;51.67;43.35;;;;;;;;;;5179331;27;20402;-87
2021/06/10 01:36:09;;;;;;;49.75;40.38;;;;;;;;;;5203851;27;20049;-87
2021/06/10 01:38:39;;;;;;;47.58;39.05;;;;;;;;;;5197509;27;20481;-86
2021/06/10 01:41:10;;;;;;;34.80;26.73;;;;;;;;;;5179626;27;20506;-87
2021/06/10 01:43:42;;;;;;;37.87;27.97;;;;;;;;;;5181887;27;20336;-86
2021/06/10 01:46:13;;;;;;;39.20;28.25;;;;;;;;;;5182675;27;20036;-86
2021/06/10 01:48:47;;;;;;;34.25;29.75;;;;;;;;;;5170985;27;20485;-87
2021/06/10 01:51:18;;;;;;;35.53;29.60;;;;;;;;;;5175661;27;20097;-86
2021/06/10 01:53:47;;;;;;;47.13;29.63;;;;;;;;;;5204523;27;20184;-88
2021/06/10 01:56:20;;;;;;;33.67;29.60;;;;;;;;;;5179284;27;20412;-88
2021/06/10 01:58:50;;;;;;;46.22;30.88;;;;;;;;;;5176475;27;20040;-87
2021/06/10 02:01:23;;;;;;;45.28;31.05;;;;;;;;;;5172461;27;20044;-87
2021/06/10 02:03:53;;;;;;;48.03;31.15;;;;;;;;;;5196644;27;20038;-87
2021/06/10 02:06:25;;;;;;;46.80;29.20;;;;;;;;;;5197689;27;20034;-88
2021/06/10 02:08:55;;;;;;;52.62;35.85;;;;;;;;;;5177371;27;20040;-86
2021/06/10 02:11:27;;;;;;;53.28;36.55;;;;;;;;;;5202178;27;20037;-87
2021/06/10 02:14:08;;;;;;;42.62;33.53;;;;;;;;;;5181106;27;20076;-88
2021/06/10 02:16:41;;;;;;;40.47;32.55;;;;;;;;;;5179053;27;20100;-89
2021/06/10 02:19:16;;;;;;;;;;;;;;;;;;5177437;27;20018;-85
2021/06/10 02:21:48;;;;;;;39.45;27.52;;;;;;;;;;5184115;27;19945;-88
2021/06/10 02:24:23;;;;;;;45.17;28.73;;;;;;;;;;5185463;27;20429;-87
2021/06/10 02:26:52;;;;;;;46.08;28.52;;;;;;;;;;5199033;27;20030;-88
2021/06/10 02:29:23;;;;;;;50.72;28.42;;;;;;;;;;5184428;27;20499;-87
2021/06/10 02:31:52;;;;;;;59.65;31.60;;;;;;;;;;5207409;27;20022;-88
2021/06/10 02:34:23;;;;;;;50.58;32.92;;;;;;;;;;5181890;27;20464;-87
2021/06/10 02:36:52;;;;;;;48.97;31.00;;;;;;;;;;5182992;27;20027;-87
2021/06/10 02:39:22;;;;;;;41.83;28.62;;;;;;;;;;5200069;27;20040;-87
2021/06/10 02:41:56;;;;;;;48.15;35.00;;;;;;;;;;5204856;27;20045;-87
2021/06/10 02:44:28;;;;;;;42.75;34.38;;;;;;;;;;5196751;27;20029;-86
2021/06/10 02:47:03;;;;;;;42.30;33.55;;;;;;;;;;5180754;27;20428;-87
2021/06/10 02:49:33;;;;;;;42.17;34.70;;;;;;;;;;5202525;27;20212;-87
2021/06/10 02:52:07;;;;;;;43.63;34.03;;;;;;;;;;5214563;27;20040;-87
2021/06/10 02:54:39;;;;;;;44.50;33.90;;;;;;;;;;5185107;27;20522;-87
2021/06/10 02:57:13;;;;;;;31.37;22.30;;;;;;;;;;5189367;27;20296;-87
2021/06/10 02:59:44;;;;;;;36.08;22.55;;;;;;;;;;5193652;27;20034;-88
2021/06/10 03:02:13;;;;;;;31.45;22.17;;;;;;;;;;5180090;27;20069;-88
2021/06/10 03:04:45;;;;;;;38.83;22.52;;;;;;;;;;5183374;27;20034;-88
2021/06/10 03:07:25;;;;;;;32.40;24.95;;;;;;;;;;5206305;27;20408;-89
2021/06/10 03:09:54;;;;;;;35.85;26.02;;;;;;;;;;5177649;27;20501;-89
2021/06/10 03:12:44;;;;;;;33.90;26.23;;;;;;;;;;5212912;27;20045;-94
2021/06/10 03:15:44;;;;;;;34.47;25.33;;;;;;;;;;5236506;27;20045;-93
2021/06/10 03:18:43;;;;;;;36.95;25.83;;;;;;;;;;5221081;27;20041;-91
2021/06/10 03:21:28;;;;;;;54.53;26.95;;;;;;;;;;5220665;27;20099;-94
2021/06/10 03:24:09;;;;;;;44.42;26.50;;;;;;;;;;5218740;27;20056;-93
2021/06/10 03:26:47;;;;;;;45.30;33.10;;;;;;;;;;5219218;27;20025;-93
2021/06/10 03:33:18;;;;;;;59.25;34.53;;;;;;;;;;5236419;27;20383;-94
2021/06/10 03:36:09;;;;;;;36.38;22.35;;;;;;;;;;5219995;27;20101;-94
2021/06/10 03:39:01;;;;;;;47.53;22.13;;;;;;;;;;5220917;27;20053;-94
2021/06/10 03:41:43;;;;;;;57.25;23.65;;;;;;;;;;5222854;27;20026;-94
2021/06/10 03:44:49;;;;;;;64.85;26.10;;;;;;;;;;5222041;27;20370;-95
2021/06/10 03:47:36;;;;;;;67.20;26.83;;;;;;;;;;5221510;27;20243;-94
2021/06/10 03:50:24;;;;;;;66.70;28.70;;;;;;;;;;5216713;27;20492;-93
2021/06/10 03:53:24;;;;;;;56.50;28.35;;;;;;;;;;5217666;27;20052;-95
2021/06/10 03:56:07;;;;;;;80.35;28.87;;;;;;;;;;5218931;27;20026;-92
2021/06/10 03:59:09;;;;;;;75.28;27.92;;;;;;;;;;5201758;27;20026;-93
2021/06/10 04:01:51;;;;;;;65.22;29.08;;;;;;;;;;5198249;27;20057;-95
2021/06/10 04:04:26;;;;;;;77.00;27.77;;;;;;;;;;5198555;27;20354;-94
2021/06/10 04:07:06;;;;;;;70.28;34.75;;;;;;;;;;5199121;27;20028;-93
2021/06/10 04:09:42;;;;;;;67.50;33.17;;;;;;;;;;5198041;27;20303;-95
2021/06/10 04:12:23;;;;;;;57.40;32.47;;;;;;;;;;5195650;27;20034;-95
2021/06/10 04:15:03;;;;;;;54.10;24.02;;;;;;;;;;5197635;27;20034;-95
2021/06/10 04:18:04;;;;;;;43.55;24.40;;;;;;;;;;5220255;27;20029;-93
2021/06/10 04:20:52;;;;;;;54.88;24.90;;;;;;;;;;5200137;27;20033;-93
2021/06/10 04:23:42;;;;;;;49.63;24.37;;;;;;;;;;5200255;27;20026;-93
2021/06/10 04:26:27;;;;;;;37.00;22.50;;;;;;;;;;5197963;27;20023;-95
2021/06/10 04:29:00;;;;;;;57.95;27.20;;;;;;;;;;5214711;27;20104;-95
2021/06/10 04:31:36;;;;;;;55.17;24.98;;;;;;;;;;5196387;27;20035;-94
2021/06/10 04:34:18;;;;;;;50.08;24.75;;;;;;;;;;5199228;27;20030;-93
2021/06/10 04:36:56;;;;;;;46.95;24.40;;;;;;;;;;5197883;27;20044;-95
2021/06/10 04:39:37;;;;;;;48.35;25.00;;;;;;;;;;5198206;27;20030;-95
2021/06/10 04:42:18;;;;;;;52.08;24.02;;;;;;;;;;5197604;27;20038;-94
2021/06/10 04:44:54;;;;;;;38.25;23.60;;;;;;;;;;5213742;27;20034;-93
2021/06/10 04:47:41;;;;;;;46.37;23.95;;;;;;;;;;5198708;27;20030;-94
2021/06/10 04:50:19;;;;;;;46.97;23.90;;;;;;;;;;5195468;27;20042;-93
2021/06/10 04:53:05;;;;;;;50.78;23.08;;;;;;;;;;5195010;27;20084;-94
2021/06/10 04:55:45;;;;;;;38.13;22.55;;;;;;;;;;5213531;27;20030;-93
2021/06/10 04:58:21;;;;;;;40.00;22.15;;;;;;;;;;5213783;27;20018;-92
2021/06/10 05:04:04;;;;;;;41.75;21.73;;;;;;;;;;5201517;27;20038;-93
2021/06/10 05:07:07;;;;;;;47.08;22.15;;;;;;;;;;5200814;27;20037;-94
2021/06/10 05:09:55;;;;;;;39.55;20.80;;;;;;;;;;5200100;27;20030;-94
2021/06/10 05:12:31;;;;;;;41.60;22.40;;;;;;;;;;5195886;27;20072;-92
2021/06/10 05:15:07;;;;;;;43.30;21.40;;;;;;;;;;5214859;27;20022;-94
2021/06/10 05:17:55;;;;;;;42.08;21.92;;;;;;;;;;5202533;27;20170;-94
2021/06/10 05:20:38;;;;;;;47.53;22.02;;;;;;;;;;5199874;27;20026;-94
2021/06/10 05:23:38;;;;;;;44.58;21.83;;;;;;;;;;5199494;27;20411;-94
2021/06/10 05:26:14;;;;;;;42.22;22.75;;;;;;;;;;5196461;27;20092;-93
2021/06/10 05:29:06;;;;;;;46.05;21.98;;;;;;;;;;5213795;27;20035;-93
2021/06/10 05:32:00;;;;;;;47.85;21.67;;;;;;;;;;5197894;27;20027;-95
2021/06/10 05:34:55;;;;;;;51.95;22.02;;;;;;;;;;5181752;27;20478;-94
2021/06/10 05:37:39;;;;;;;43.08;20.40;;;;;;;;;;5197504;27;20053;-93
2021/06/10 05:40:32;;;;;;;53.90;23.17;;;;;;;;;;5200994;27;20348;-93
2021/06/10 05:43:12;;;;;;;41.42;21.90;;;;;;;;;;5213811;27;20462;-94
2021/06/10 05:45:47;;;;;;;39.10;20.70;;;;;;;;;;5198428;27;20037;-93
2021/06/10 05:48:23;;;;;;;45.50;21.02;;;;;;;;;;5198408;27;20029;-93
2021/06/10 05:51:30;;;;;;;40.72;21.55;;;;;;;;;;5192215;27;20759;-94
2021/06/10 05:54:12;;;;;;;49.22;21.45;;;;;;;;;;5197582;27;20033;-94
2021/06/10 05:57:04;;;;;;;42.47;20.30;;;;;;;;;;5199072;27;20026;-93
2021/06/10 05:59:49;;;;;;;41.37;21.15;;;;;;;;;;5196161;27;20072;-92
2021/06/10 06:05:47;;;;;;;61.85;21.75;;;;;;;;;;5214288;27;20056;-96
2021/06/10 06:08:46;;;;;;;45.00;20.60;;;;;;;;;;5200879;27;20026;-96
2021/06/10 06:15:33;;;;;;;45.00;18.58;;;;;;;;;;5215453;27;20034;-95
2021/06/10 06:19:05;;;;;;;54.08;20.67;;;;;;;;;;5191296;27;20027;-96
2021/06/10 06:22:15;;;;;;;55.55;20.65;;;;;;;;;;5203179;27;20343;-96
2021/06/10 06:25:15;;;;;;;49.05;20.12;;;;;;;;;;5210176;27;20261;-96
2021/06/10 06:29:24;;;;;;;65.70;20.45;;;;;;;;;;5145159;27;20087;-96
2021/06/10 06:32:34;;;;;;;52.67;19.02;;;;;;;;;;5191972;27;20076;-95
2021/06/10 06:35:48;;;;;;;47.70;18.60;;;;;;;;;;5213736;27;20060;-96
2021/06/10 06:38:38;;;;;;;49.97;20.27;;;;;;;;;;5199192;27;20069;-96
2021/06/10 06:41:22;;;;;;;48.22;20.42;;;;;;;;;;5214196;27;20049;-96
2021/06/10 06:44:07;;;;;;;49.63;19.33;;;;;;;;;;5197830;27;20030;-96
2021/06/10 06:46:49;;;;;;;39.75;18.60;;;;;;;;;;5197212;27;20030;-95
2021/06/10 06:49:39;;;;;;;50.50;18.83;;;;;;;;;;5195113;27;20111;-95
2021/06/10 06:52:25;;;;;;;48.22;20.40;;;;;;;;;;5198348;27;20049;-94
2021/06/10 06:55:30;;;;;;;47.50;19.83;;;;;;;;;;5197270;27;20121;-96
2021/06/10 06:58:05;;;;;;;49.22;19.75;;;;;;;;;;5197068;27;20034;-95
2021/06/10 07:00:50;;;;;;;51.22;20.45;;;;;;;;;;5190521;27;20034;-96
2021/06/10 07:03:32;;;;;;;53.45;20.52;;;;;;;;;;5199091;27;20355;-96
2021/06/10 07:06:07;;;;;;;43.83;20.15;;;;;;;;;;5197752;27;20379;-94
2021/06/10 07:08:58;;;;;;;49.80;19.58;;;;;;;;;;5189530;27;20078;-96
2021/06/10 07:11:48;;;;;;;44.53;20.05;;;;;;;;;;5196177;27;20038;-94
2021/06/10 07:14:28;;;;;;;52.47;32.97;;;;;;;;;;5196558;27;20093;-96
2021/06/10 07:17:25;;;;;;;33.47;21.12;;;;;;;;;;5201624;27;20034;-96
2021/06/10 07:20:08;;;;;;;48.42;23.35;;;;;;;;;;5195488;27;20033;-94
2021/06/10 07:22:51;;;;;;;43.97;22.17;;;;;;;;;;5203646;27;20579;-95
2021/06/10 07:26:05;;;;;;;50.10;23.80;;;;;;;;;;5199096;27;20030;-96
2021/06/10 07:29:13;;;;;;;45.53;22.90;;;;;;;;;;5219302;27;20050;-96
2021/06/10 07:31:55;;;;;;;50.78;23.70;;;;;;;;;;5201431;27;20388;-96
2021/06/10 07:34:56;;;;;;;40.88;22.67;;;;;;;;;;5202246;27;20461;-96
2021/06/10 07:37:41;;;;;;;43.13;24.10;;;;;;;;;;5197379;27;20027;-96
2021/06/10 07:40:39;;;;;;;42.00;23.45;;;;;;;;;;5200333;27;20031;-96
2021/06/10 07:44:11;;;;;;;47.13;25.02;;;;;;;;;;5187984;27;20025;-96
2021/06/10 07:47:18;;;;;;;46.75;23.20;;;;;;;;;;5214828;27;20083;-96
2021/06/10 07:50:30;;;;;;;46.58;24.42;;;;;;;;;;5158669;27;20104;-96
2021/06/10 07:53:32;;;;;;;60.55;36.85;;;;;;;;;;5201647;27;20034;-95
2021/06/10 07:56:22;;;;;;;54.42;39.42;;;;;;;;;;5200669;27;20080;-94
2021/06/10 07:59:27;;;;;;;54.42;41.20;;;;;;;;;;5200582;27;20040;-95
2021/06/10 08:02:33;;;;;;;64.82;43.92;;;;;;;;;;5197609;27;20037;-94
2021/06/10 08:06:09;;;;;;;62.92;44.72;;;;;;;;;;5180498;27;20046;-95
2021/06/10 08:09:16;;;;;;;;;;;;;;;;;;;;;
2021/06/10 08:12:26;;;;;;;50.95;38.22;;;;;;;;;;5213474;27;20022;-95
2021/06/10 08:16:14;;;;;;;45.65;31.62;;;;;;;;;;5169300;27;20115;-96
2021/06/10 08:18:54;;;;;;;30.08;21.90;;;;;;;;;;5199243;27;20039;-95
2021/06/10 08:30:21;;;;;;;24.85;5.30;;;;;;;;;;5147908;27;20073;-96
2021/06/10 08:33:40;;;;;;;23.20;4.50;;;;;;;;;;5123149;27;20039;-96
2021/06/10 08:37:27;;;;;;;15.50;4.82;;;;;;;;;;5055396;28;20624;-96
2021/06/10 08:41:17;;;;;;;;;;;;;;;;;;;;;
2021/06/10 08:51:37;;;;;;;18.83;4.50;;;;;;;;;;5112978;28;20122;-87
2021/06/10 08:54:09;;;;;;;18.62;5.03;;;;;;;;;;5118582;28;20027;-85
2021/06/10 08:56:42;;;;;;;15.43;4.40;;;;;;;;;;5096510;28;20059;-85
2021/06/10 08:59:14;;;;;;;14.02;4.12;;;;;;;;;;5111388;28;20118;-86
2021/06/10 09:01:46;;;;;;;16.45;4.62;;;;;;;;;;5112395;28;20467;-85
2021/06/10 09:04:17;;;;;;;14.27;4.40;;;;;;;;;;5137145;27;20066;-86
2021/06/10 09:06:52;;;;;;;12.68;4.30;;;;;;;;;;5212412;27;20358;-86
2021/06/10 09:09:36;;;;;;;16.37;4.62;;;;;;;;;;5287079;27;20052;-85
2021/06/10 09:12:09;;;;;;;17.45;5.28;;;;;;;;;;5289621;27;20017;-85
2021/06/10 09:15:01;;;;;;;22.10;4.85;;;;;;;;;;5293975;27;20026;-86
2021/06/10 09:17:32;;;;;;;18.48;4.53;;;;;;;;;;5287039;27;20044;-85
2021/06/10 09:20:25;;;;;;;16.83;4.43;;;;;;;;;;5285721;27;20060;-86
2021/06/10 09:23:10;;;;;;;14.53;4.63;;;;;;;;;;5285629;27;20057;-86
2021/06/10 09:25:43;;;;;;;16.35;5.25;;;;;;;;;;5290665;27;20125;-87
2021/06/10 09:28:15;;;;;;;17.65;5.28;;;;;;;;;;5268107;27;20332;-85
2021/06/10 09:30:49;;;;;;;17.02;4.65;;;;;;;;;;5288737;27;20076;-85
2021/06/10 09:33:22;;;;;;;22.40;5.00;;;;;;;;;;5286945;27;20432;-85
2021/06/10 09:35:57;;;;;;;15.82;4.60;;;;;;;;;;5269425;27;20124;-86
2021/06/10 09:38:27;;;;;;;16.25;4.85;;;;;;;;;;5266049;27;20075;-85
2021/06/10 09:41:06;;;;;;;15.98;4.90;;;;;;;;;;5283169;27;20405;-85
2021/06/10 09:43:44;;;;;;;22.55;5.07;;;;;;;;;;5291242;27;20052;-85
2021/06/10 09:46:16;;;;;;;18.52;5.22;;;;;;;;;;5291969;27;20059;-85
2021/06/10 09:49:02;;;;;;;15.65;5.18;;;;;;;;;;5287812;27;20056;-85
2021/06/10 09:51:34;;;;;;;16.80;5.10;;;;;;;;;;5285487;27;20039;-85
2021/06/10 09:54:05;;;;;;;15.68;4.53;;;;;;;;;;5294163;27;20040;-85
2021/06/10 09:56:36;;;;;;;13.62;4.35;;;;;;;;;;5285322;27;20030;-86
2021/06/10 09:59:08;;;;;;;17.05;5.10;;;;;;;;;;5284928;27;20405;-86
2021/06/10 10:01:39;;;;;;;12.48;4.10;;;;;;;;;;5286637;27;20037;-86
2021/06/10 10:04:11;;;;;;;15.23;4.43;;;;;;;;;;5274670;27;20040;-85
2021/06/10 10:06:42;;;;;;;12.52;4.03;;;;;;;;;;5285191;27;20063;-86
2021/06/10 10:09:18;;;;;;;16.27;4.20;;;;;;;;;;5283901;27;20081;-85
2021/06/10 10:11:48;;;;;;;14.73;4.20;;;;;;;;;;5287544;27;20554;-85
2021/06/10 10:14:19;;;;;;;11.45;3.90;;;;;;;;;;5289003;27;20063;-86
2021/06/10 10:16:50;;;;;;;12.32;4.47;;;;;;;;;;5266692;27;20029;-86
2021/06/10 10:19:21;;;;;;;14.15;4.03;;;;;;;;;;5286517;27;20052;-85
2021/06/10 10:21:54;;;;;;;13.77;4.05;;;;;;;;;;5287520;27;20044;-85
2021/06/10 10:24:26;;;;;;;10.25;3.70;;;;;;;;;;5288622;27;20025;-85
2021/06/10 10:26:57;;;;;;;11.93;3.95;;;;;;;;;;5285014;27;20056;-85
2021/06/10 10:29:28;;;;;;;11.48;3.28;;;;;;;;;;5268019;27;20048;-85
2021/06/10 10:31:59;;;;;;;11.18;3.92;;;;;;;;;;5287025;27;20043;-86
2021/06/10 10:34:32;;;;;;;12.48;3.80;;;;;;;;;;5283804;27;20045;-86
2021/06/10 10:37:22;;;;;;;14.57;4.35;;;;;;;;;;5286135;27;20038;-86
2021/06/10 10:39:54;;;;;;;14.45;4.30;;;;;;;;;;5289556;27;20021;-86
2021/06/10 10:42:30;;;;;;;16.73;4.03;;;;;;;;;;5286370;27;20442;-86
2021/06/10 10:45:15;;;;;;;18.37;4.68;;;;;;;;;;5286680;27;20017;-86
2021/06/10 10:47:45;;;;;;;12.55;3.80;;;;;;;;;;5286992;27;20388;-86
2021/06/10 10:50:30;;;;;;;11.27;3.90;;;;;;;;;;5290797;27;20033;-86
2021/06/10 10:53:02;;;;;;;12.85;3.58;;;;;;;;;;5271661;27;20462;-86
2021/06/10 10:55:33;;;;;;;11.65;3.70;;;;;;;;;;5293185;27;20028;-85
2021/06/10 10:58:03;;;;;;;19.60;3.65;;;;;;;;;;5293592;27;20018;-85
2021/06/10 11:00:50;;;;;;;14.93;4.32;;;;;;;;;;5290166;27;20423;-85
2021/06/10 11:03:35;;;;;;;14.60;4.07;;;;;;;;;;5292577;27;20281;-85
2021/06/10 11:06:36;;;;;;;13.07;3.62;;;;;;;;;;5288076;27;20038;-85
2021/06/10 11:09:12;;;;;;;12.77;4.45;;;;;;;;;;5266256;27;20065;-85
2021/06/10 11:11:57;;;;;;;19.83;4.62;;;;;;;;;;5270530;27;20382;-85
2021/06/10 11:14:34;;;;;;;25.23;5.32;;;;;;;;;;5271925;27;20467;-86
2021/06/10 11:17:14;;;;;;;15.27;4.57;;;;;;;;;;5290966;27;20036;-85
2021/06/10 11:20:06;;;;;;;15.15;4.03;;;;;;;;;;5292725;27;20030;-85
2021/06/10 11:23:00;;;;;;;13.80;4.30;;;;;;;;;;5288404;27;20043;-85
2021/06/10 11:25:31;;;;;;;12.77;4.40;;;;;;;;;;5287707;27;20053;-86
2021/06/10 11:28:09;;;;;;;15.38;4.15;;;;;;;;;;5286336;27;20068;-85
2021/06/10 11:30:41;;;;;;;13.65;4.60;;;;;;;;;;5289449;27;20082;-86
2021/06/10 11:33:12;;;;;;;16.50;4.65;;;;;;;;;;5291145;27;20057;-86
2021/06/10 11:35:48;;;;;;;15.90;4.80;;;;;;;;;;5286978;27;20068;-85
2021/06/10 11:38:21;;;;;;;13.40;3.70;;;;;;;;;;5287473;27;20041;-85
2021/06/10 11:41:02;;;;;;;20.45;5.07;;;;;;;;;;5287334;27;20363;-85
2021/06/10 11:43:35;;;;;;;14.80;5.00;;;;;;;;;;5273497;27;20064;-85
2021/06/10 11:46:16;;;;;;;14.83;4.53;;;;;;;;;;5289699;27;20502;-86
2021/06/10 11:48:47;;;;;;;14.82;4.55;;;;;;;;;;5268823;27;20028;-85
2021/06/10 11:51:17;;;;;;;16.05;4.65;;;;;;;;;;5292120;27;20055;-85
2021/06/10 11:53:49;;;;;;;17.83;4.57;;;;;;;;;;5292069;27;20060;-86
2021/06/10 11:56:26;;;;;;;14.38;4.35;;;;;;;;;;5289812;27;20045;-85
2021/06/10 11:59:03;;;;;;;17.23;4.55;;;;;;;;;;5268363;27;20021;-85
2021/06/10 12:01:34;;;;;;;76.97;8.80;;;;;;;;;;5271912;27;20504;-86
2021/06/10 12:04:11;;;;;;;13.57;4.10;;;;;;;;;;5289617;27;20057;-85
2021/06/10 12:06:42;;;;;;;16.83;4.45;;;;;;;;;;5286625;27;20041;-85
2021/06/10 12:09:14;;;;;;;13.57;4.50;;;;;;;;;;5287703;27;20037;-87
2021/06/10 12:11:51;;;;;;;18.40;4.72;;;;;;;;;;5287210;27;20052;-87
2021/06/10 12:14:22;;;;;;;14.48;4.40;;;;;;;;;;5290352;27;20079;-88
2021/06/10 12:17:00;;;;;;;14.40;3.80;;;;;;;;;;5286509;27;20018;-86
2021/06/10 12:19:29;;;;;;;15.55;4.50;;;;;;;;;;5287989;27;20048;-87
2021/06/10 12:22:01;;;;;;;18.85;4.50;;;;;;;;;;5287801;27;20513;-86
2021/06/10 12:24:42;;;;;;;14.25;4.50;;;;;;;;;;5287552;27;20057;-86
2021/06/10 12:27:17;;;;;;;17.60;4.90;;;;;;;;;;5287942;27;20013;-86
2021/06/10 12:29:52;;;;;;;16.80;3.90;;;;;;;;;;5288168;27;20105;-87
2021/06/10 12:32:29;;;;;;;17.70;4.12;;;;;;;;;;5287707;27;20419;-86
2021/06/10 12:35:00;;;;;;;27.65;5.35;;;;;;;;;;5288464;27;20639;-86
2021/06/10 12:37:31;;;;;;;17.40;4.15;;;;;;;;;;5285905;27;20309;-86
2021/06/10 12:40:03;;;;;;;17.25;4.80;;;;;;;;;;5264665;27;20063;-87
2021/06/10 12:42:33;;;;;;;16.85;3.97;;;;;;;;;;5272590;27;20037;-86
2021/06/10 12:45:24;;;;;;;12.60;3.80;;;;;;;;;;5286507;27;20045;-87
2021/06/10 12:47:55;;;;;;;12.15;3.83;;;;;;;;;;5286849;27;20044;-86
2021/06/10 12:50:29;;;;;;;18.92;5.15;;;;;;;;;;5284442;27;20420;-87
2021/06/10 12:53:08;;;;;;;15.57;4.70;;;;;;;;;;5284815;27;20044;-86
2021/06/10 12:55:39;;;;;;;19.60;4.12;;;;;;;;;;5284181;27;20052;-86
2021/06/10 12:58:18;;;;;;;15.77;4.35;;;;;;;;;;5279622;27;20033;-86
2021/06/10 13:00:49;;;;;;;17.90;5.15;;;;;;;;;;5281444;27;20112;-86
2021/06/10 13:03:20;;;;;;;17.30;4.68;;;;;;;;;;5277923;27;20049;-86
2021/06/10 13:06:05;;;;;;;18.30;4.93;;;;;;;;;;5274316;27;20039;-86
2021/06/10 13:08:36;;;;;;;17.48;4.50;;;;;;;;;;5276116;27;20261;-86
2021/06/10 13:11:15;;;;;;;29.20;5.37;;;;;;;;;;5280295;27;20025;-86
2021/06/10 13:13:47;;;;;;;20.37;4.50;;;;;;;;;;5282418;27;20045;-87
2021/06/10 13:16:18;;;;;;;18.58;4.70;;;;;;;;;;5285290;27;20567;-87
2021/06/10 13:18:50;;;;;;;15.23;4.80;;;;;;;;;;5270682;27;20029;-87
2021/06/10 13:21:40;;;;;;;20.58;4.97;;;;;;;;;;5290772;27;20125;-87
2021/06/10 13:24:12;;;;;;;21.62;4.93;;;;;;;;;;5265396;27;20052;-85
2021/06/10 13:26:47;;;;;;;17.50;4.37;;;;;;;;;;5283911;27;20033;-85
2021/06/10 13:29:18;;;;;;;19.33;4.70;;;;;;;;;;5267854;27;20044;-86
2021/06/10 13:31:52;;;;;;;19.60;4.65;;;;;;;;;;5284454;27;20488;-86
2021/06/10 13:34:34;;;;;;;18.65;4.87;;;;;;;;;;5287589;27;20044;-87
2021/06/10 13:37:07;;;;;;;21.00;4.82;;;;;;;;;;5288137;27;20072;-85
2021/06/10 13:39:37;;;;;;;21.08;4.75;;;;;;;;;;5269371;27;20071;-86
2021/06/10 13:42:08;;;;;;;18.00;4.62;;;;;;;;;;5290916;27;20619;-85
2021/06/10 13:44:40;;;;;;;20.88;4.95;;;;;;;;;;5287486;27;20041;-86
2021/06/10 13:47:11;;;;;;;17.75;4.45;;;;;;;;;;5288454;27;20039;-85
2021/06/10 13:49:44;;;;;;;20.25;4.65;;;;;;;;;;5289582;27;20049;-85
2021/06/10 13:52:15;;;;;;;36.67;5.23;;;;;;;;;;5289072;27;20104;-85
2021/06/10 13:54:46;;;;;;;98.68;10.23;;;;;;;;;;5267804;27;20462;-85
2021/06/10 13:57:18;;;;;;;16.67;4.60;;;;;;;;;;5288689;27;20029;-85
2021/06/10 13:59:46;;;;;;;24.67;5.00;;;;;;;;;;5287820;27;20029;-85
2021/06/10 14:02:18;;;;;;;21.58;4.93;;;;;;;;;;5290878;27;20064;-85
2021/06/10 14:04:49;;;;;;;21.73;4.82;;;;;;;;;;5287210;27;20501;-85
2021/06/10 14:07:20;;;;;;;17.85;4.68;;;;;;;;;;5268575;27;20066;-85
2021/06/10 14:09:51;;;;;;;21.87;4.72;;;;;;;;;;5290276;27;20056;-85
2021/06/10 14:12:22;;;;;;;22.17;4.80;;;;;;;;;;5288546;27;20044;-86
2021/06/10 14:14:53;;;;;;;17.30;4.78;;;;;;;;;;5288224;27;20045;-85
2021/06/10 14:17:24;;;;;;;23.52;4.93;;;;;;;;;;5287445;27;20073;-85
2021/06/10 14:19:55;;;;;;;20.95;4.70;;;;;;;;;;5266064;27;20029;-85
2021/06/10 14:22:26;;;;;;;22.90;5.57;;;;;;;;;;5284933;27;20033;-86
2021/06/10 14:24:57;;;;;;;25.12;5.07;;;;;;;;;;5285549;27;20359;-86
2021/06/10 14:27:28;;;;;;;16.90;5.03;;;;;;;;;;5289257;27;20031;-85
2021/06/10 14:32:52;;;;;;;20.98;4.90;;;;;;;;;;5263695;27;20049;-85
2021/06/10 14:35:25;;;;;;;22.85;5.10;;;;;;;;;;5288176;27;20029;-86
2021/06/10 14:37:57;;;;;;;24.60;4.85;;;;;;;;;;5289618;27;20022;-86
2021/06/10 14:40:29;;;;;;;25.87;5.10;;;;;;;;;;5291164;27;20056;-86
2021/06/10 14:42:59;;;;;;;21.25;5.32;;;;;;;;;;5292638;27;20036;-86
2021/06/10 14:45:34;;;;;;;24.23;6.00;;;;;;;;;;5290236;27;20362;-86
2021/06/10 14:48:06;;;;;;;21.02;5.07;;;;;;;;;;5289742;27;20060;-85
2021/06/10 14:50:37;;;;;;;22.73;5.00;;;;;;;;;;5271821;27;20451;-86
2021/06/10 14:53:08;;;;;;;21.52;5.05;;;;;;;;;;5284187;27;20077;-86
2021/06/10 14:55:39;;;;;;;19.35;4.95;;;;;;;;;;5265969;27;20308;-85
2021/06/10 14:58:11;;;;;;;21.35;5.25;;;;;;;;;;5268019;27;20053;-85
2021/06/10 15:00:42;;;;;;;29.73;5.30;;;;;;;;;;5291020;27;20052;-86
2021/06/10 15:03:12;;;;;;;24.55;5.07;;;;;;;;;;5281220;27;20055;-86
2021/06/10 15:05:43;;;;;;;74.22;7.70;;;;;;;;;;5285821;27;20510;-86
2021/06/10 15:08:16;;;;;;;16.85;4.68;;;;;;;;;;5268411;27;20043;-85
2021/06/10 15:10:48;;;;;;;;;;;;;;;;;;5284860;27;20076;-85
2021/06/10 15:13:18;;;;;;;18.40;4.57;;;;;;;;;;5290969;27;19941;-85
2021/06/10 15:15:50;;;;;;;20.62;4.85;;;;;;;;;;5279914;27;20484;-86
2021/06/10 15:18:21;;;;;;;16.98;4.68;;;;;;;;;;5280609;27;20877;-85
2021/06/10 15:20:54;;;;;;;17.55;4.20;;;;;;;;;;5278020;27;20049;-86
2021/06/10 15:23:25;;;;;;;19.65;4.60;;;;;;;;;;5281913;27;20498;-85
2021/06/10 15:25:56;;;;;;;22.70;4.62;;;;;;;;;;5287529;27;20090;-85
2021/06/10 15:28:28;;;;;;;17.80;4.60;;;;;;;;;;5287935;27;20051;-86
2021/06/10 15:30:59;;;;;;;27.30;4.70;;;;;;;;;;5285296;27;20025;-85
2021/06/10 15:33:30;;;;;;;18.45;4.43;;;;;;;;;;5285264;27;20053;-86
2021/06/10 15:36:01;;;;;;;15.88;4.12;;;;;;;;;;5265148;27;20052;-86
2021/06/10 15:38:32;;;;;;;21.87;5.43;;;;;;;;;;5257682;27;20411;-85
2021/06/10 15:41:11;;;;;;;19.98;4.87;;;;;;;;;;5264887;27;20538;-86
2021/06/10 15:43:43;;;;;;;21.50;4.90;;;;;;;;;;5283506;27;20078;-85
2021/06/10 15:46:14;;;;;;;20.45;5.05;;;;;;;;;;5289639;27;20052;-85
2021/06/10 15:48:46;;;;;;;15.05;4.10;;;;;;;;;;5285763;27;20025;-85
2021/06/10 15:51:18;;;;;;;17.02;4.28;;;;;;;;;;5278126;27;20049;-85
2021/06/10 15:53:48;;;;;;;16.73;4.75;;;;;;;;;;5286840;27;20467;-86
2021/06/10 15:56:19;;;;;;;22.20;5.00;;;;;;;;;;5273542;27;20110;-85
2021/06/10 15:58:50;;;;;;;20.10;4.85;;;;;;;;;;5285247;27;20056;-86
2021/06/10 16:01:19;;;;;;;21.00;4.93;;;;;;;;;;5280622;27;20049;-86
2021/06/10 16:03:50;;;;;;;23.48;4.70;;;;;;;;;;5263872;27;20305;-85
2021/06/10 16:06:21;;;;;;;21.62;4.78;;;;;;;;;;5281122;27;20579;-86
2021/06/10 16:08:52;;;;;;;17.83;4.68;;;;;;;;;;5279531;27;20410;-85
2021/06/10 16:11:23;;;;;;;20.67;4.53;;;;;;;;;;5283036;27;20224;-86